createdAt,value
2022-11-12T00:00:23.055Z,95.00
2022-11-12T00:03:27.683Z,94.90
2022-11-12T00:06:32.522Z,94.80
2022-11-12T00:09:37.457Z,95.20
2022-11-12T00:12:42.697Z,95.70
2022-11-12T00:15:47.665Z,95.50
2022-11-12T00:18:52.281Z,95.30
2022-11-12T00:21:57.201Z,95.30
2022-11-12T00:25:02.498Z,95.70
2022-11-12T00:28:09.502Z,96.00
2022-11-12T00:31:14.484Z,95.90
2022-11-12T00:34:19.423Z,95.80
2022-11-12T00:37:25.241Z,95.60
2022-11-12T00:40:30.394Z,95.70
2022-11-12T00:43:35.258Z,95.80
2022-11-12T00:46:40.086Z,96.10
2022-11-12T00:49:45.105Z,96.30
2022-11-12T00:52:52.928Z,96.00
2022-11-12T00:56:04.193Z,96.40
2022-11-12T00:59:08.972Z,96.30
2022-11-12T01:02:13.708Z,96.40
2022-11-12T01:05:19.718Z,96.20
2022-11-12T01:08:25.016Z,96.20
2022-11-12T01:11:30.661Z,95.90
2022-11-12T01:14:36.389Z,95.50
2022-11-12T01:17:41.133Z,95.30
2022-11-12T01:20:45.959Z,95.30
2022-11-12T01:23:50.973Z,95.30
2022-11-12T01:26:55.732Z,95.30
2022-11-12T01:30:00.542Z,95.20
2022-11-12T01:33:05.520Z,95.00
2022-11-12T01:36:11.125Z,95.20
2022-11-12T01:39:15.674Z,95.00
2022-11-12T01:42:20.383Z,94.90
2022-11-12T01:45:25.501Z,94.70
2022-11-12T01:49:00.393Z,94.60
2022-11-12T01:52:20.533Z,94.90
2022-11-12T01:55:32.319Z,95.00
2022-11-12T01:58:38.895Z,95.10
2022-11-12T02:01:43.768Z,95.00
2022-11-12T02:04:50.316Z,95.00
2022-11-12T02:07:56.713Z,95.00
2022-11-12T02:11:14.305Z,95.00
2022-11-12T02:14:19.532Z,95.10
2022-11-12T02:17:24.570Z,95.00
2022-11-12T02:20:36.709Z,94.90
2022-11-12T02:23:41.827Z,95.20
2022-11-12T02:26:51.260Z,95.00
2022-11-12T02:29:56.208Z,95.10
2022-11-12T02:33:01.281Z,95.10
2022-11-12T02:36:06.479Z,95.20
2022-11-12T02:39:11.420Z,95.40
2022-11-12T02:42:16.234Z,95.50
2022-11-12T02:45:21.456Z,95.30
2022-11-12T02:48:26.556Z,95.40
2022-11-12T02:51:31.712Z,95.40
2022-11-12T02:54:36.609Z,95.60
2022-11-12T02:57:41.814Z,95.60
2022-11-12T03:00:47.637Z,95.40
2022-11-12T03:03:52.432Z,95.70
2022-11-12T03:06:57.156Z,95.80
2022-11-12T03:10:02.118Z,95.50
2022-11-12T03:13:07.604Z,95.30
2022-11-12T03:16:12.445Z,95.20
2022-11-12T03:19:17.096Z,95.50
2022-11-12T03:22:21.965Z,95.70
2022-11-12T03:25:27.911Z,95.80
2022-11-12T03:28:32.758Z,95.70
2022-11-12T03:31:38.354Z,95.50
2022-11-12T03:34:43.277Z,95.60
2022-11-12T03:37:48.416Z,95.80
2022-11-12T03:40:53.124Z,96.00
2022-11-12T03:43:58.041Z,96.00
2022-11-12T03:47:03.077Z,95.70
2022-11-12T03:50:10.260Z,95.70
2022-11-12T03:53:15.633Z,95.90
2022-11-12T03:56:20.597Z,96.10
2022-11-12T03:59:25.492Z,96.20
2022-11-12T04:02:30.214Z,96.40
2022-11-12T04:05:53.122Z,96.40
2022-11-12T04:08:57.920Z,96.10
2022-11-12T04:12:23.070Z,96.00
2022-11-12T04:15:27.597Z,95.90
2022-11-12T04:18:51.213Z,95.80
2022-11-12T04:22:01.991Z,96.00
2022-11-12T04:25:25.258Z,95.80
2022-11-12T04:28:30.027Z,96.20
2022-11-12T04:31:35.020Z,96.40
2022-11-12T04:34:40.171Z,96.20
2022-11-12T04:37:45.843Z,95.90
2022-11-12T04:41:08.828Z,95.70
2022-11-12T04:44:32.205Z,95.60
2022-11-12T04:47:39.639Z,95.90
2022-11-12T04:50:47.491Z,96.20
2022-11-12T04:53:52.543Z,96.20
2022-11-12T04:56:57.366Z,96.10
2022-11-12T05:00:02.126Z,96.10
2022-11-12T05:03:06.801Z,96.70
2022-11-12T05:06:30.349Z,96.50
2022-11-12T05:09:35.396Z,96.40
2022-11-12T05:12:40.116Z,96.40
2022-11-12T05:15:45.109Z,96.60
2022-11-12T05:18:49.909Z,96.80
2022-11-12T05:22:06.907Z,96.60
2022-11-12T05:25:12.432Z,96.90
2022-11-12T05:28:17.246Z,97.10
2022-11-12T05:31:22.269Z,97.00
2022-11-12T05:34:27.535Z,97.20
2022-11-12T05:37:32.466Z,97.50
2022-11-12T05:40:37.238Z,97.40
2022-11-12T05:43:42.199Z,97.30
2022-11-12T05:46:47.463Z,97.30
2022-11-12T05:49:52.741Z,97.20
2022-11-12T05:52:57.569Z,96.80
2022-11-12T05:56:06.941Z,96.80
2022-11-12T05:59:13.669Z,96.70
2022-11-12T06:02:18.416Z,96.80
2022-11-12T06:05:23.080Z,96.50
2022-11-12T06:08:28.556Z,96.60
2022-11-12T06:11:34.592Z,96.70
2022-11-12T06:14:39.595Z,96.70
2022-11-12T06:17:44.774Z,96.90
2022-11-12T06:21:09.517Z,97.00
2022-11-12T06:24:14.411Z,97.20
2022-11-12T06:27:19.237Z,97.50
2022-11-12T06:30:25.776Z,97.90
2022-11-12T06:33:30.756Z,98.40
2022-11-12T06:36:36.060Z,98.60
2022-11-12T06:39:40.955Z,98.60
2022-11-12T06:42:46.050Z,98.40
2022-11-12T06:45:51.213Z,98.60
2022-11-12T06:48:56.002Z,98.60
2022-11-12T06:52:00.649Z,98.00
2022-11-12T06:55:05.869Z,98.10
2022-11-12T06:58:10.910Z,97.50
2022-11-12T07:01:17.494Z,97.60
2022-11-12T07:04:23.745Z,97.10
2022-11-12T07:07:29.485Z,97.30
2022-11-12T07:10:34.104Z,97.60
2022-11-12T07:13:39.512Z,97.90
2022-11-12T07:16:44.408Z,98.20
2022-11-12T07:19:49.216Z,98.20
2022-11-12T07:22:54.251Z,98.50
2022-11-12T07:26:05.280Z,97.90
2022-11-12T07:29:10.212Z,97.70
2022-11-12T07:32:15.565Z,97.30
2022-11-12T07:35:20.554Z,97.10
2022-11-12T07:38:26.545Z,96.90
2022-11-12T07:41:31.343Z,97.50
2022-11-12T07:44:36.123Z,97.40
2022-11-12T07:47:41.071Z,97.50
2022-11-12T07:50:46.209Z,97.80
2022-11-12T07:53:58.894Z,98.10
2022-11-12T07:57:04.779Z,98.10
2022-11-12T08:00:12.247Z,97.50
2022-11-12T08:03:17.241Z,97.10
2022-11-12T08:06:22.124Z,97.50
2022-11-12T08:09:27.160Z,97.10
2022-11-12T08:12:32.173Z,97.10
2022-11-12T08:15:36.936Z,97.10
2022-11-12T08:18:42.509Z,97.10
2022-11-12T08:21:47.452Z,97.50
2022-11-12T08:24:52.357Z,97.40
2022-11-12T08:27:58.493Z,98.00
2022-11-12T08:31:11.218Z,97.80
2022-11-12T08:34:21.408Z,98.00
2022-11-12T08:37:27.537Z,97.90
2022-11-12T08:40:33.212Z,97.90
2022-11-12T08:43:39.575Z,97.90
2022-11-12T08:46:44.388Z,97.90
2022-11-12T08:49:49.366Z,97.90
2022-11-12T08:52:58.797Z,98.20
2022-11-12T08:56:03.990Z,98.10
2022-11-12T08:59:08.846Z,97.40
2022-11-12T09:02:14.334Z,97.70
2022-11-12T09:05:18.964Z,97.50
2022-11-12T09:08:25.699Z,97.30
2022-11-12T09:11:30.848Z,97.50
2022-11-12T09:14:35.872Z,97.40
2022-11-12T09:17:40.696Z,97.60
2022-11-12T09:20:46.201Z,98.00
2022-11-12T09:23:51.508Z,98.60
2022-11-12T09:26:56.278Z,98.20
2022-11-12T09:30:01.170Z,97.90
2022-11-12T09:33:06.508Z,97.60
2022-11-12T09:36:11.392Z,97.70
2022-11-12T09:39:16.068Z,97.70
2022-11-12T09:42:22.950Z,97.40
2022-11-12T09:45:32.739Z,96.90
2022-11-12T09:48:44.302Z,97.10
2022-11-12T09:51:59.913Z,96.50
2022-11-12T09:55:23.900Z,96.00
2022-11-12T09:58:28.670Z,96.00
2022-11-12T10:02:05.886Z,95.90
2022-11-12T10:05:32.453Z,96.10
2022-11-12T10:09:21.810Z,95.90
2022-11-12T10:12:32.242Z,96.60
2022-11-12T10:15:57.536Z,97.40
2022-11-12T10:19:02.149Z,97.60
2022-11-12T10:22:39.002Z,96.50
2022-11-12T10:25:45.877Z,96.80
2022-11-12T10:29:03.071Z,96.50
2022-11-12T10:32:15.366Z,96.40
2022-11-12T10:35:23.036Z,96.50
2022-11-12T10:38:29.126Z,96.40
2022-11-12T10:41:35.257Z,96.10
2022-11-12T10:44:42.426Z,95.60
2022-11-12T10:47:47.638Z,96.30
2022-11-12T10:50:52.765Z,96.40
2022-11-12T10:53:57.520Z,96.80
2022-11-12T10:57:20.978Z,96.40
2022-11-12T11:00:25.743Z,96.10
2022-11-12T11:03:54.120Z,95.60
2022-11-12T11:07:02.544Z,95.80
2022-11-12T11:10:24.444Z,95.30
2022-11-12T11:13:29.160Z,95.20
2022-11-12T11:17:02.014Z,95.20
2022-11-12T11:20:29.316Z,95.50
2022-11-12T11:23:57.344Z,95.50
2022-11-12T11:27:30.641Z,95.40
2022-11-12T11:30:46.615Z,95.20
2022-11-12T11:34:22.085Z,95.10
2022-11-12T11:37:32.449Z,95.00
2022-11-12T11:40:43.250Z,94.60
2022-11-12T11:44:11.199Z,95.00
2022-11-12T11:47:50.455Z,94.90
2022-11-12T11:51:13.731Z,94.50
2022-11-12T11:54:48.364Z,94.10
2022-11-12T11:58:15.150Z,94.40
2022-11-12T12:01:38.482Z,94.50
2022-11-12T12:04:48.429Z,94.50
2022-11-12T12:08:09.931Z,94.10
2022-11-12T12:12:10.351Z,94.10
2022-11-12T12:15:20.715Z,94.10
2022-11-12T12:18:31.141Z,94.00
2022-11-12T12:21:39.672Z,94.00
2022-11-12T12:24:54.913Z,94.10
2022-11-12T12:28:08.822Z,94.00
2022-11-12T12:31:21.128Z,93.90
2022-11-12T12:34:37.228Z,93.90
2022-11-12T12:37:50.428Z,94.20
2022-11-12T12:41:27.878Z,94.40
2022-11-12T12:45:00.316Z,95.00
2022-11-12T12:48:27.784Z,95.50
2022-11-12T12:51:34.305Z,95.20
2022-11-12T12:54:39.342Z,94.80
2022-11-12T12:57:44.856Z,94.90
2022-11-12T13:00:52.335Z,94.90
2022-11-12T13:04:05.117Z,94.90
2022-11-12T13:07:11.126Z,94.70
2022-11-12T13:10:41.407Z,94.40
2022-11-12T13:13:45.945Z,94.00
2022-11-12T13:16:53.416Z,94.10
2022-11-12T13:19:58.013Z,94.40
2022-11-12T13:23:03.745Z,94.40
2022-11-12T13:26:39.455Z,94.60
2022-11-12T13:29:46.433Z,94.60
2022-11-12T13:32:52.530Z,94.40
2022-11-12T13:36:36.110Z,93.90
2022-11-12T13:39:41.305Z,94.40
2022-11-12T13:42:49.844Z,94.00
2022-11-12T13:46:26.182Z,93.80
2022-11-12T13:49:30.944Z,93.80
2022-11-12T13:52:36.676Z,93.70
2022-11-12T13:55:49.398Z,94.00
2022-11-12T13:58:54.606Z,94.10
2022-11-12T14:02:05.416Z,94.30
2022-11-12T14:05:34.092Z,94.40
2022-11-12T14:08:50.308Z,94.30
2022-11-12T14:12:28.370Z,94.30
2022-11-12T14:15:53.468Z,94.60
2022-11-12T14:19:04.370Z,94.90
2022-11-12T14:22:21.417Z,95.20
2022-11-12T14:25:28.462Z,95.20
2022-11-12T14:28:35.499Z,95.60
2022-11-12T14:31:40.521Z,95.60
2022-11-12T14:34:45.455Z,95.80
2022-11-12T14:37:59.801Z,95.80
2022-11-12T14:41:10.095Z,95.80
2022-11-12T14:44:21.544Z,95.90
2022-11-12T14:47:26.862Z,96.00
2022-11-12T14:50:39.204Z,96.40
2022-11-12T14:53:58.061Z,96.60
2022-11-12T14:57:04.366Z,97.00
2022-11-12T15:00:32.942Z,97.30
2022-11-12T15:03:37.975Z,97.40
2022-11-12T15:06:42.799Z,97.60
2022-11-12T15:09:47.631Z,97.60
2022-11-12T15:12:52.580Z,97.10
2022-11-12T15:16:08.244Z,97.30
2022-11-12T15:19:25.303Z,97.40
2022-11-12T15:22:30.711Z,97.50
2022-11-12T15:25:35.977Z,97.40
2022-11-12T15:28:40.669Z,97.40
2022-11-12T15:31:48.537Z,97.70
2022-11-12T15:34:53.271Z,97.60
2022-11-12T15:38:01.871Z,98.00
2022-11-12T15:41:19.445Z,98.00
2022-11-12T15:44:24.966Z,98.30
2022-11-12T15:47:30.093Z,98.50
2022-11-12T15:50:35.019Z,98.60
2022-11-12T15:53:39.976Z,98.40
2022-11-12T15:56:44.797Z,98.70
2022-11-12T16:00:07.529Z,98.70
2022-11-12T16:03:16.205Z,98.50
2022-11-12T16:06:21.056Z,98.30
2022-11-12T16:09:26.100Z,98.40
2022-11-12T16:12:31.425Z,98.70
2022-11-12T16:15:36.853Z,98.60
2022-11-12T16:18:41.999Z,98.60
2022-11-12T16:21:46.735Z,98.80
2022-11-12T16:24:51.654Z,98.60
2022-11-12T16:27:57.885Z,98.50
2022-11-12T16:31:02.596Z,98.40
2022-11-12T16:34:07.580Z,98.40
2022-11-12T16:37:13.165Z,98.70
2022-11-12T16:40:27.340Z,98.60
2022-11-12T16:43:32.220Z,99.00
2022-11-12T16:46:42.275Z,98.80
2022-11-12T16:49:46.904Z,98.80
2022-11-12T16:52:52.885Z,98.90
2022-11-12T16:55:57.848Z,99.20
2022-11-12T16:59:02.512Z,99.30
2022-11-12T17:02:14.505Z,99.20
2022-11-12T17:05:22.436Z,98.80
2022-11-12T17:08:33.718Z,99.00
2022-11-12T17:11:39.102Z,99.10
2022-11-12T17:14:44.360Z,98.80
2022-11-12T17:17:48.992Z,99.00
2022-11-12T17:20:53.906Z,99.90
2022-11-12T17:23:58.621Z,99.50
2022-11-12T17:27:03.674Z,99.80
2022-11-12T17:30:08.688Z,99.80
2022-11-12T17:33:13.763Z,99.80
2022-11-12T17:36:24.369Z,99.40
2022-11-12T17:39:29.277Z,99.60
2022-11-12T17:42:34.213Z,99.30
2022-11-12T17:45:39.031Z,99.50
2022-11-12T17:48:44.085Z,99.30
2022-11-12T17:51:49.179Z,99.60
2022-11-12T17:54:54.003Z,99.70
2022-11-12T17:57:59.050Z,99.70
2022-11-12T18:01:17.741Z,99.90
2022-11-12T18:04:23.937Z,99.60
2022-11-12T18:07:28.665Z,99.50
2022-11-12T18:10:33.305Z,99.20
2022-11-12T18:13:38.273Z,99.40
2022-11-12T18:16:43.413Z,99.60
2022-11-12T18:19:48.196Z,99.20
2022-11-12T18:22:53.045Z,99.60
2022-11-12T18:25:57.888Z,99.10
2022-11-12T18:29:02.765Z,99.50
2022-11-12T18:32:08.245Z,99.50
2022-11-12T18:35:12.946Z,99.70
2022-11-12T18:38:18.218Z,99.50
2022-11-12T18:41:25.786Z,99.30
2022-11-12T18:44:30.877Z,99.40
2022-11-12T18:47:35.842Z,99.50
2022-11-12T18:50:40.672Z,99.70
2022-11-12T18:53:46.313Z,99.30
2022-11-12T18:56:50.977Z,99.50
2022-11-12T18:59:55.911Z,99.50
2022-11-12T19:03:01.149Z,99.40
2022-11-12T19:06:07.110Z,99.30
2022-11-12T19:09:13.975Z,99.00
2022-11-12T19:12:18.519Z,98.60
2022-11-12T19:15:26.807Z,98.80
2022-11-12T19:18:32.155Z,99.30
2022-11-12T19:21:37.379Z,99.30
2022-11-12T19:24:42.245Z,99.00
2022-11-12T19:27:47.259Z,99.10
2022-11-12T19:30:52.148Z,99.20
2022-11-12T19:33:57.173Z,99.20
2022-11-12T19:40:26.554Z,99.20
2022-11-12T19:43:31.590Z,99.20
2022-11-12T19:46:36.684Z,98.90
2022-11-12T19:49:41.835Z,98.90
2022-11-12T19:52:46.846Z,99.40
2022-11-12T19:55:51.593Z,99.30
2022-11-12T19:58:56.632Z,99.50
2022-11-12T20:02:01.366Z,99.20
2022-11-12T20:05:06.861Z,99.00
2022-11-12T20:08:11.550Z,99.50
2022-11-12T20:11:16.950Z,99.40
2022-11-12T20:14:21.733Z,99.10
2022-11-12T20:17:26.442Z,99.60
2022-11-12T20:20:31.278Z,99.60
2022-11-12T20:23:38.680Z,99.70
2022-11-12T20:26:43.444Z,99.70
2022-11-12T20:29:48.550Z,99.40
2022-11-12T20:32:53.413Z,99.20
2022-11-12T20:36:11.184Z,99.60
2022-11-12T20:39:15.786Z,99.70
2022-11-12T20:42:20.891Z,99.40
2022-11-12T20:45:27.206Z,99.60
2022-11-12T20:48:32.508Z,99.60
2022-11-12T20:51:37.632Z,99.40
2022-11-12T20:54:42.358Z,99.70
2022-11-12T20:57:47.142Z,99.60
2022-11-12T21:00:52.048Z,99.30
2022-11-12T21:03:57.800Z,99.20
2022-11-12T21:07:05.455Z,99.30
2022-11-12T21:10:10.571Z,99.10
2022-11-12T21:13:16.069Z,98.90
2022-11-12T21:16:20.820Z,98.50
2022-11-12T21:19:25.666Z,99.00
2022-11-12T21:22:32.241Z,99.30
2022-11-12T21:25:39.825Z,99.40
2022-11-12T21:28:46.328Z,99.20
2022-11-12T21:31:51.238Z,98.80
2022-11-12T21:34:56.394Z,99.50
2022-11-12T21:38:01.305Z,99.40
2022-11-12T21:41:09.017Z,99.30
2022-11-12T21:44:13.572Z,98.80
2022-11-12T21:47:18.382Z,98.80
2022-11-12T21:50:22.980Z,98.60
2022-11-12T21:53:28.195Z,99.00
2022-11-12T21:56:34.966Z,99.30
2022-11-12T21:59:40.049Z,99.60
2022-11-12T22:02:45.105Z,99.40
2022-11-12T22:05:50.070Z,99.70
2022-11-12T22:08:56.285Z,99.70
2022-11-12T22:12:01.228Z,99.50
2022-11-12T22:15:06.839Z,99.10
2022-11-12T22:18:11.846Z,99.00
2022-11-12T22:21:23.115Z,99.00
2022-11-12T22:24:27.977Z,98.90
2022-11-12T22:27:33.862Z,99.00
2022-11-12T22:30:38.842Z,99.00
2022-11-12T22:33:44.071Z,98.80
2022-11-12T22:36:48.779Z,98.80
2022-11-12T22:39:53.709Z,99.10
2022-11-12T22:42:58.555Z,98.80
2022-11-12T22:46:10.181Z,98.20
2022-11-12T22:49:14.567Z,98.30
2022-11-12T22:52:19.522Z,98.50
2022-11-12T22:55:24.561Z,98.60
2022-11-12T22:58:30.609Z,99.00
2022-11-12T23:01:36.513Z,99.10
2022-11-12T23:04:41.676Z,99.40
2022-11-12T23:07:46.552Z,99.00
2022-11-12T23:10:51.798Z,98.70
2022-11-12T23:13:56.719Z,98.50
2022-11-12T23:17:02.047Z,98.50
2022-11-12T23:20:07.393Z,99.20
2022-11-12T23:23:12.165Z,99.00
2022-11-12T23:26:23.096Z,99.00
2022-11-12T23:29:28.025Z,99.20
2022-11-12T23:32:33.217Z,99.30
2022-11-12T23:35:38.005Z,99.50
2022-11-12T23:38:43.601Z,99.50
2022-11-12T23:41:48.562Z,99.30
2022-11-12T23:44:53.498Z,99.20
2022-11-12T23:47:58.264Z,98.90
2022-11-12T23:51:10.332Z,98.90
2022-11-12T23:54:15.272Z,98.80
2022-11-12T23:57:20.295Z,98.40
